createdAt,value
2019-03-31T00:00:49.542Z,60459.87
2019-03-31T00:03:17.975Z,60462.92
2019-03-31T00:05:46.456Z,60462.92
2019-03-31T00:08:14.944Z,60507.64
2019-03-31T00:10:43.707Z,60454.79
2019-03-31T00:13:12.208Z,60468.00
2019-03-31T00:15:40.665Z,60497.47
2019-03-31T00:18:09.131Z,60452.76
2019-03-31T00:20:37.616Z,60452.76
2019-03-31T00:23:06.425Z,60477.15
2019-03-31T00:25:34.920Z,60476.13
2019-03-31T00:28:03.310Z,60463.94
2019-03-31T00:30:32.070Z,60463.94
2019-03-31T00:33:00.463Z,60460.89
2019-03-31T00:35:28.842Z,60488.33
2019-03-31T00:37:57.240Z,60452.76
2019-03-31T00:40:25.619Z,60452.76
2019-03-31T00:42:54.020Z,60483.25
2019-03-31T00:45:22.752Z,60483.25
2019-03-31T00:47:51.146Z,60488.33
2019-03-31T00:50:19.643Z,60488.33
2019-03-31T00:52:48.606Z,60454.79
2019-03-31T00:55:17.210Z,60476.13
2019-03-31T00:57:46.596Z,60476.13
2019-03-31T01:00:19.574Z,60487.31
2019-03-31T01:02:48.232Z,60479.18
2019-03-31T01:05:16.954Z,60473.09
2019-03-31T01:07:45.382Z,60473.09
2019-03-31T01:10:14.241Z,60483.25
2019-03-31T01:12:42.726Z,60487.31
2019-03-31T01:15:15.842Z,60492.39
2019-03-31T01:17:44.607Z,60492.39
2019-03-31T01:20:13.070Z,60473.09
2019-03-31T01:22:41.453Z,60473.09
2019-03-31T01:25:10.032Z,60455.81
2019-03-31T01:27:38.423Z,60492.39
2019-03-31T01:30:11.605Z,60492.39
2019-03-31T01:32:40.354Z,60475.12
2019-03-31T01:35:10.453Z,60474.10
2019-03-31T01:37:39.192Z,60474.10
2019-03-31T01:40:08.034Z,60481.21
2019-03-31T01:42:36.450Z,60481.21
2019-03-31T01:45:07.579Z,60480.20
2019-03-31T01:47:36.417Z,60480.20
2019-03-31T01:50:08.867Z,60470.04
2019-03-31T01:52:37.262Z,60470.04
2019-03-31T01:55:08.564Z,60502.55
2019-03-31T01:57:36.956Z,60482.23
2019-03-31T02:00:12.112Z,60501.54
2019-03-31T02:02:40.624Z,60488.33
2019-03-31T02:05:09.363Z,60495.44
2019-03-31T02:07:37.753Z,60498.49
2019-03-31T02:10:06.791Z,60505.60
2019-03-31T02:12:35.184Z,60505.60
2019-03-31T02:15:06.012Z,60478.16
2019-03-31T02:17:34.407Z,60478.16
2019-03-31T02:20:02.980Z,60492.39
2019-03-31T02:22:31.377Z,60492.39
2019-03-31T02:24:59.754Z,60476.13
2019-03-31T02:27:28.309Z,60483.25
2019-03-31T02:29:56.792Z,60477.15
2019-03-31T02:32:25.288Z,60477.15
2019-03-31T02:34:54.031Z,60481.21
2019-03-31T02:37:22.441Z,60487.31
2019-03-31T02:39:50.834Z,60487.31
2019-03-31T02:42:19.202Z,60492.39
2019-03-31T02:44:47.602Z,60488.33
2019-03-31T02:47:16.235Z,60483.25
2019-03-31T02:49:44.920Z,60483.25
2019-03-31T02:52:13.385Z,60483.25
2019-03-31T02:54:43.132Z,60469.02
2019-03-31T02:57:11.983Z,60469.02
2019-03-31T02:59:42.220Z,60495.44
2019-03-31T03:02:13.475Z,60500.52
2019-03-31T03:04:42.266Z,60476.13
2019-03-31T03:07:12.812Z,60483.25
2019-03-31T03:09:44.243Z,60471.05
2019-03-31T03:12:13.749Z,60508.65
2019-03-31T03:14:43.770Z,60503.57
2019-03-31T03:17:12.153Z,60497.47
2019-03-31T03:19:40.545Z,60502.55
2019-03-31T03:22:09.185Z,60499.50
2019-03-31T03:24:37.567Z,60487.31
2019-03-31T03:27:05.994Z,60504.59
2019-03-31T03:29:34.368Z,60519.83
2019-03-31T03:32:02.858Z,60494.43
2019-03-31T03:34:31.263Z,60492.39
2019-03-31T03:37:00.114Z,60492.39
2019-03-31T03:39:28.481Z,60490.36
2019-03-31T03:41:56.869Z,60507.64
2019-03-31T03:44:25.354Z,60507.64
2019-03-31T03:46:53.938Z,60518.82
2019-03-31T03:49:22.346Z,60490.36
2019-03-31T03:51:50.731Z,60498.49
2019-03-31T03:54:19.115Z,60507.64
2019-03-31T03:56:47.513Z,60508.65
2019-03-31T03:59:15.902Z,60508.65
2019-03-31T04:01:44.604Z,60490.36
2019-03-31T04:04:13.287Z,60527.96
2019-03-31T04:06:41.686Z,60483.25
2019-03-31T04:09:10.091Z,60496.46
2019-03-31T04:11:38.507Z,60523.89
2019-03-31T04:14:06.906Z,60501.54
2019-03-31T04:16:35.296Z,60500.52
2019-03-31T04:19:03.817Z,60494.43
2019-03-31T04:21:32.449Z,60494.43
2019-03-31T04:24:00.895Z,60516.78
2019-03-31T04:26:29.322Z,60511.70
2019-03-31T04:28:58.027Z,60486.29
2019-03-31T04:31:26.407Z,60501.54
2019-03-31T04:33:54.792Z,60532.02
2019-03-31T04:36:23.363Z,60512.72
2019-03-31T04:38:51.833Z,60492.39
2019-03-31T04:41:20.619Z,60478.16
2019-03-31T04:43:49.143Z,60503.57
2019-03-31T04:46:17.534Z,60514.75
2019-03-31T04:48:46.365Z,60493.41
2019-03-31T04:51:14.765Z,60533.04
2019-03-31T04:53:43.344Z,60496.46
2019-03-31T04:56:11.743Z,60496.46
2019-03-31T04:58:40.129Z,60491.38
2019-03-31T05:01:08.532Z,60516.78
2019-03-31T05:03:37.252Z,60522.88
2019-03-31T05:06:05.946Z,60522.88
2019-03-31T05:08:34.344Z,60505.60
2019-03-31T05:11:03.002Z,60484.26
2019-03-31T05:13:31.392Z,60490.36
2019-03-31T05:16:00.065Z,60535.07
2019-03-31T05:18:28.483Z,60504.59
2019-03-31T05:20:56.902Z,60505.60
2019-03-31T05:23:25.304Z,60518.82
2019-03-31T05:25:53.699Z,60536.09
2019-03-31T05:28:22.184Z,60540.15
2019-03-31T05:30:50.573Z,60494.43
2019-03-31T05:33:19.233Z,60523.89
2019-03-31T05:35:47.648Z,60527.96
2019-03-31T05:38:16.302Z,60517.80
2019-03-31T05:40:44.699Z,60507.64
2019-03-31T05:43:13.081Z,60515.77
2019-03-31T05:45:41.493Z,60515.77
2019-03-31T05:48:10.035Z,60507.64
2019-03-31T05:50:38.490Z,60517.80
2019-03-31T05:53:07.225Z,60506.62
2019-03-31T05:55:35.970Z,60480.20
2019-03-31T05:58:04.498Z,60508.65
2019-03-31T06:00:36.197Z,60552.35
2019-03-31T06:03:04.632Z,60513.73
2019-03-31T06:05:33.016Z,60493.41
2019-03-31T06:08:01.595Z,60510.68
2019-03-31T06:10:30.273Z,60486.29
2019-03-31T06:12:58.985Z,60533.04
2019-03-31T06:15:27.436Z,60533.04
2019-03-31T06:17:55.851Z,60519.83
2019-03-31T06:20:24.239Z,60500.52
2019-03-31T06:22:52.630Z,60516.78
2019-03-31T06:25:21.218Z,60525.93
2019-03-31T06:27:49.594Z,60477.15
2019-03-31T06:30:18.647Z,60502.55
2019-03-31T06:32:47.042Z,60509.67
2019-03-31T06:35:15.448Z,60509.67
2019-03-31T06:37:43.956Z,60506.62
2019-03-31T06:40:12.722Z,60506.62
2019-03-31T06:42:41.108Z,60540.15
2019-03-31T06:45:09.962Z,60488.33
2019-03-31T06:47:38.345Z,60516.78
2019-03-31T06:50:08.735Z,60528.98
2019-03-31T06:52:37.142Z,60508.65
2019-03-31T06:55:07.359Z,60512.72
2019-03-31T06:57:35.766Z,60512.72
2019-03-31T07:00:06.734Z,60490.36
2019-03-31T07:02:35.330Z,60493.41
2019-03-31T07:05:06.875Z,60503.57
2019-03-31T07:07:35.262Z,60498.49
2019-03-31T07:10:05.548Z,60498.49
2019-03-31T07:12:34.202Z,60510.68
2019-03-31T07:15:02.869Z,60491.38
2019-03-31T07:17:31.254Z,60487.31
2019-03-31T07:19:59.652Z,60487.31
2019-03-31T07:22:28.037Z,60444.63
2019-03-31T07:24:56.436Z,60517.80
2019-03-31T07:27:24.850Z,60488.33
2019-03-31T07:29:53.334Z,60490.36
2019-03-31T07:32:21.822Z,60477.15
2019-03-31T07:34:50.224Z,60491.38
2019-03-31T07:37:18.974Z,60512.72
2019-03-31T07:39:47.570Z,60481.21
2019-03-31T07:42:16.386Z,60468.00
2019-03-31T07:44:44.729Z,60483.25
2019-03-31T07:47:13.404Z,60471.05
2019-03-31T07:49:42.125Z,60486.29
2019-03-31T07:52:10.522Z,60472.07
2019-03-31T07:54:39.157Z,60483.25
2019-03-31T07:57:07.685Z,60500.52
2019-03-31T07:59:36.111Z,60468.00
2019-03-31T08:02:04.453Z,60464.96
2019-03-31T08:04:33.085Z,60482.23
2019-03-31T08:07:01.983Z,60474.10
2019-03-31T08:09:30.383Z,60474.10
2019-03-31T08:11:58.777Z,60473.09
2019-03-31T08:14:27.155Z,60478.16
2019-03-31T08:16:55.900Z,60484.26
2019-03-31T08:19:24.304Z,60453.78
2019-03-31T08:21:52.699Z,60456.82
2019-03-31T08:24:21.345Z,60483.25
2019-03-31T08:26:49.738Z,60464.96
2019-03-31T08:29:22.294Z,60485.28
2019-03-31T08:31:55.325Z,60490.36
2019-03-31T08:34:23.928Z,60436.50
2019-03-31T08:36:55.634Z,60443.61
2019-03-31T08:39:24.023Z,60448.70
2019-03-31T08:41:52.522Z,60465.97
2019-03-31T08:44:21.097Z,60439.55
2019-03-31T08:46:49.489Z,60463.94
2019-03-31T08:49:17.968Z,60466.99
2019-03-31T08:51:46.449Z,60454.79
2019-03-31T08:54:14.823Z,60462.92
2019-03-31T08:56:43.617Z,60445.65
2019-03-31T08:59:12.040Z,60465.97
2019-03-31T09:01:41.384Z,60460.89
2019-03-31T09:04:09.841Z,60472.07
2019-03-31T09:06:38.257Z,60451.75
2019-03-31T09:09:09.797Z,60449.71
2019-03-31T09:11:42.067Z,60453.78
2019-03-31T09:14:11.818Z,60442.60
2019-03-31T09:16:40.301Z,60440.57
2019-03-31T09:19:08.680Z,60432.44
2019-03-31T09:21:37.077Z,60419.23
2019-03-31T09:24:05.824Z,60442.60
2019-03-31T09:26:34.205Z,60442.60
2019-03-31T09:29:04.031Z,60462.92
2019-03-31T09:31:32.597Z,60452.76
2019-03-31T09:34:01.029Z,60461.91
2019-03-31T09:36:29.422Z,60430.40
2019-03-31T09:38:58.125Z,60443.61
2019-03-31T09:41:26.615Z,60466.99
2019-03-31T09:43:55.948Z,60437.52
2019-03-31T09:46:24.500Z,60485.28
2019-03-31T09:48:52.889Z,60471.05
2019-03-31T09:51:21.473Z,60469.02
2019-03-31T09:53:49.871Z,60475.12
2019-03-31T09:56:18.291Z,60459.87
2019-03-31T09:58:46.709Z,60474.10
2019-03-31T10:01:15.092Z,60463.94
2019-03-31T10:03:43.510Z,60479.18
2019-03-31T10:06:12.045Z,60479.18
2019-03-31T10:08:41.258Z,60452.76
2019-03-31T10:11:09.834Z,60480.20
2019-03-31T10:13:38.225Z,60477.15
2019-03-31T10:16:06.804Z,60466.99
2019-03-31T10:18:35.265Z,60478.16
2019-03-31T10:21:03.681Z,60464.96
2019-03-31T10:23:32.827Z,60472.07
2019-03-31T10:26:01.217Z,60476.13
2019-03-31T10:28:29.621Z,60497.47
2019-03-31T10:30:58.189Z,60466.99
2019-03-31T10:33:26.577Z,60502.55
2019-03-31T10:35:55.232Z,60473.09
2019-03-31T10:38:23.611Z,60460.89
2019-03-31T10:40:52.416Z,60470.04
2019-03-31T10:43:21.292Z,60470.04
2019-03-31T10:45:49.760Z,60478.16
2019-03-31T10:48:20.763Z,60473.09
2019-03-31T10:50:48.372Z,60473.09
2019-03-31T10:53:16.974Z,60469.02
2019-03-31T10:55:45.362Z,60469.02
2019-03-31T10:58:13.772Z,60478.16
2019-03-31T11:00:44.543Z,60478.16
2019-03-31T11:03:12.263Z,60506.62
2019-03-31T11:05:40.664Z,60494.43
2019-03-31T11:08:09.152Z,60462.92
2019-03-31T11:10:37.679Z,60505.60
2019-03-31T11:13:06.585Z,60481.21
2019-03-31T11:15:35.050Z,60481.21
2019-03-31T11:18:03.554Z,60495.44
2019-03-31T11:20:32.229Z,60495.44
2019-03-31T11:23:20.412Z,60499.50
2019-03-31T11:25:48.868Z,60470.04
2019-03-31T11:28:17.322Z,60479.18
2019-03-31T11:30:45.996Z,60479.18
2019-03-31T11:33:14.463Z,60484.26
2019-03-31T11:35:45.313Z,60497.47
2019-03-31T11:38:14.842Z,60477.15
2019-03-31T11:40:43.234Z,60489.34
2019-03-31T11:43:13.334Z,60460.89
2019-03-31T11:45:41.699Z,60459.87
2019-03-31T11:48:10.110Z,60474.10
2019-03-31T11:50:38.781Z,60447.68
2019-03-31T11:53:07.481Z,60492.39
2019-03-31T11:55:35.908Z,60450.73
2019-03-31T11:58:04.306Z,60477.15
2019-03-31T12:00:34.350Z,60466.99
2019-03-31T12:03:08.123Z,60451.75
2019-03-31T12:05:36.537Z,60459.87
2019-03-31T12:08:05.168Z,60463.94
2019-03-31T12:10:33.884Z,60455.81
2019-03-31T12:13:02.312Z,60465.97
2019-03-31T12:15:30.722Z,60474.10
2019-03-31T12:17:59.102Z,60437.52
2019-03-31T12:20:27.761Z,60437.52
2019-03-31T12:22:56.142Z,60458.86
2019-03-31T12:25:24.651Z,60471.05
2019-03-31T12:27:53.151Z,60469.02
2019-03-31T12:30:28.767Z,60450.73
2019-03-31T12:32:58.841Z,60462.92
2019-03-31T12:35:27.310Z,60451.75
2019-03-31T12:37:55.705Z,60458.86
2019-03-31T12:40:31.933Z,60466.99
2019-03-31T12:43:00.325Z,60485.28
2019-03-31T12:45:28.923Z,60443.61
2019-03-31T12:48:00.865Z,60469.02
2019-03-31T12:50:27.435Z,60458.86
2019-03-31T12:52:55.888Z,60461.91
2019-03-31T12:55:24.280Z,60476.13
2019-03-31T12:57:52.697Z,60456.82
2019-03-31T13:00:21.215Z,60439.55
2019-03-31T13:02:49.604Z,60472.07
2019-03-31T13:05:17.998Z,60471.05
2019-03-31T13:07:56.253Z,60465.97
2019-03-31T13:10:16.874Z,60469.02
2019-03-31T13:12:45.302Z,60444.63
2019-03-31T13:15:13.841Z,60438.53
2019-03-31T13:17:42.260Z,60453.78
2019-03-31T13:20:10.981Z,60447.68
2019-03-31T13:22:41.424Z,60432.44
2019-03-31T13:25:10.370Z,60425.32
2019-03-31T13:27:39.020Z,60452.76
2019-03-31T13:30:08.543Z,60434.47
2019-03-31T13:32:37.220Z,60454.79
2019-03-31T13:35:08.556Z,60451.75
2019-03-31T13:37:37.565Z,60409.07
2019-03-31T13:40:08.437Z,60439.55
2019-03-31T13:42:36.848Z,60436.50
2019-03-31T13:45:06.974Z,60423.29
2019-03-31T13:47:35.423Z,60443.61
2019-03-31T13:50:05.698Z,60447.68
2019-03-31T13:52:34.511Z,60448.70
2019-03-31T13:55:04.466Z,60453.78
2019-03-31T13:57:33.264Z,60427.36
2019-03-31T14:00:01.815Z,60454.79
2019-03-31T14:02:30.312Z,60433.45
2019-03-31T14:04:58.684Z,60434.47
2019-03-31T14:07:27.117Z,60422.27
2019-03-31T14:09:55.500Z,60436.50
2019-03-31T14:12:23.882Z,60432.44
2019-03-31T14:14:52.465Z,60408.05
2019-03-31T14:17:24.248Z,60433.45
2019-03-31T14:19:51.229Z,60436.50
2019-03-31T14:22:20.090Z,60434.47
2019-03-31T14:24:48.490Z,60426.34
2019-03-31T14:27:17.001Z,60432.44
2019-03-31T14:29:46.257Z,60439.55
2019-03-31T14:32:16.323Z,60419.23
2019-03-31T14:34:44.840Z,60437.52
2019-03-31T14:37:14.467Z,60428.37
2019-03-31T14:39:42.899Z,60433.45
2019-03-31T14:42:12.596Z,60442.60
2019-03-31T14:44:41.012Z,60433.45
2019-03-31T14:47:09.674Z,60432.44
2019-03-31T14:49:38.238Z,60443.61
2019-03-31T14:52:08.115Z,60450.73
2019-03-31T14:54:36.666Z,60448.70
2019-03-31T14:57:05.740Z,60419.23
2019-03-31T14:59:34.320Z,60401.95
2019-03-31T15:02:02.819Z,60434.47
2019-03-31T15:04:31.300Z,60415.16
2019-03-31T15:06:59.875Z,60435.48
2019-03-31T15:09:28.493Z,60440.57
2019-03-31T15:11:57.040Z,60419.23
2019-03-31T15:14:25.515Z,60447.68
2019-03-31T15:16:53.941Z,60443.61
2019-03-31T15:19:22.428Z,60412.11
2019-03-31T15:21:50.905Z,60429.39
2019-03-31T15:24:19.402Z,60428.37
2019-03-31T15:26:47.839Z,60451.75
2019-03-31T15:29:16.320Z,60424.31
2019-03-31T15:31:44.831Z,60400.93
2019-03-31T15:34:13.267Z,60434.47
2019-03-31T15:36:41.752Z,60422.27
2019-03-31T15:39:10.455Z,60446.66
2019-03-31T15:41:38.873Z,60430.40
2019-03-31T15:44:07.450Z,60446.66
2019-03-31T15:46:35.834Z,60438.53
2019-03-31T15:49:04.307Z,60436.50
2019-03-31T15:51:32.807Z,60455.81
2019-03-31T15:54:01.269Z,60421.26
2019-03-31T15:56:29.725Z,60457.84
2019-03-31T15:58:58.200Z,60429.39
2019-03-31T16:01:26.582Z,60449.71
2019-03-31T16:03:55.000Z,60441.58
2019-03-31T16:06:23.553Z,60432.44
2019-03-31T16:08:51.964Z,60436.50
2019-03-31T16:11:20.484Z,60446.66
2019-03-31T16:13:48.824Z,60458.86
2019-03-31T16:16:17.202Z,60422.27
2019-03-31T16:18:45.645Z,60428.37
2019-03-31T16:21:14.353Z,60425.32
2019-03-31T16:23:42.750Z,60433.45
2019-03-31T16:26:11.155Z,60468.00
2019-03-31T16:28:39.543Z,60440.57
2019-03-31T16:31:08.265Z,60455.81
2019-03-31T16:33:36.667Z,60436.50
2019-03-31T16:36:05.145Z,60459.87
2019-03-31T16:38:33.533Z,60444.63
2019-03-31T16:41:02.198Z,60439.55
2019-03-31T16:43:30.585Z,60417.20
2019-03-31T16:45:59.068Z,60430.40
2019-03-31T16:48:27.561Z,60440.57
2019-03-31T16:50:55.981Z,60460.89
2019-03-31T16:53:24.521Z,60449.71
2019-03-31T16:55:53.205Z,60459.87
2019-03-31T16:58:21.626Z,60477.15
2019-03-31T17:00:50.019Z,60477.15
2019-03-31T17:03:18.500Z,60440.57
2019-03-31T17:05:47.408Z,60466.99
2019-03-31T17:08:16.231Z,60442.60
2019-03-31T17:10:44.684Z,60440.57
2019-03-31T17:13:13.395Z,60437.52
2019-03-31T17:15:41.978Z,60434.47
2019-03-31T17:18:10.387Z,60477.15
2019-03-31T17:20:40.156Z,60462.92
2019-03-31T17:23:10.268Z,60455.81
2019-03-31T17:25:38.837Z,60453.78
2019-03-31T17:28:10.109Z,60448.70
2019-03-31T17:30:37.494Z,60463.94
2019-03-31T17:33:05.882Z,60452.76
2019-03-31T17:35:34.421Z,60452.76
2019-03-31T17:38:02.837Z,60448.70
2019-03-31T17:40:31.212Z,60443.61
2019-03-31T17:42:59.594Z,60485.28
2019-03-31T17:45:28.558Z,60485.28
2019-03-31T17:47:57.157Z,60458.86
2019-03-31T17:50:25.545Z,60453.78
2019-03-31T17:52:54.128Z,60440.57
2019-03-31T17:55:22.574Z,60472.07
2019-03-31T17:57:50.978Z,60464.96
2019-03-31T18:00:19.952Z,60496.46
2019-03-31T18:02:48.428Z,60471.05
2019-03-31T18:05:16.832Z,60466.99
2019-03-31T18:07:45.612Z,60466.99
2019-03-31T18:10:20.627Z,60471.05
2019-03-31T18:12:44.498Z,60471.05
2019-03-31T18:15:13.225Z,60461.91
2019-03-31T18:17:41.663Z,60471.05
2019-03-31T18:20:10.397Z,60471.05
2019-03-31T18:22:39.053Z,60474.10
2019-03-31T18:25:08.220Z,60475.12
2019-03-31T18:27:36.641Z,60475.12
2019-03-31T18:30:06.562Z,60481.21
2019-03-31T18:32:35.152Z,60474.10
2019-03-31T18:35:04.590Z,60474.10
2019-03-31T18:37:32.983Z,60493.41
2019-03-31T18:40:01.375Z,60468.00
2019-03-31T18:42:29.850Z,60485.28
2019-03-31T18:44:58.382Z,60469.02
2019-03-31T18:47:26.940Z,60475.12
2019-03-31T18:49:55.344Z,60461.91
2019-03-31T18:52:23.809Z,60456.82
2019-03-31T18:54:56.400Z,60456.82
2019-03-31T18:57:32.269Z,60464.96
2019-03-31T19:00:02.319Z,60482.23
2019-03-31T19:02:32.331Z,60479.18
2019-03-31T19:05:11.365Z,60475.12
2019-03-31T19:07:41.387Z,60469.02
2019-03-31T19:10:24.012Z,60469.02
2019-03-31T19:12:43.528Z,60479.18
2019-03-31T19:15:25.273Z,60479.18
2019-03-31T19:18:08.959Z,60468.00
2019-03-31T19:20:44.687Z,60477.15
2019-03-31T19:23:17.142Z,60477.15
2019-03-31T19:25:50.460Z,60476.13
2019-03-31T19:28:33.700Z,60476.13
2019-03-31T19:31:19.209Z,60486.29
2019-03-31T19:33:52.065Z,60464.96
2019-03-31T19:36:25.076Z,60479.18
2019-03-31T19:39:11.226Z,60479.18
2019-03-31T19:41:43.791Z,60482.23
2019-03-31T19:44:17.213Z,60478.16
2019-03-31T19:46:47.175Z,60478.16
2019-03-31T19:49:17.571Z,60506.62
2019-03-31T19:51:50.377Z,60506.62
2019-03-31T19:54:20.401Z,60438.53
2019-03-31T19:56:56.430Z,60438.53
2019-03-31T19:59:29.531Z,60462.92
2019-03-31T20:01:59.596Z,60462.92
2019-03-31T20:04:35.880Z,60524.91
2019-03-31T20:07:24.634Z,60468.00
2019-03-31T20:10:00.325Z,60481.21
2019-03-31T20:12:42.305Z,60481.21
2019-03-31T20:15:29.196Z,60461.91
2019-03-31T20:18:15.601Z,60461.91
2019-03-31T20:20:51.074Z,60477.15
2019-03-31T20:23:23.929Z,60494.43
2019-03-31T20:25:56.538Z,60500.52
2019-03-31T20:28:26.569Z,60484.26
2019-03-31T20:31:11.791Z,60484.26
2019-03-31T20:33:44.506Z,60520.85
2019-03-31T20:36:23.437Z,60485.28
2019-03-31T20:38:56.626Z,60487.31
2019-03-31T20:41:27.017Z,60502.55
2019-03-31T20:43:55.406Z,60502.55
2019-03-31T20:46:24.123Z,60504.59
2019-03-31T20:48:53.177Z,60498.49
2019-03-31T20:51:21.570Z,60480.20
2019-03-31T20:53:49.957Z,60480.20
2019-03-31T20:56:18.458Z,60515.77
2019-03-31T20:58:46.846Z,60502.55
2019-03-31T21:01:15.248Z,60471.05
2019-03-31T21:03:43.648Z,60456.82
2019-03-31T21:06:12.033Z,60456.82
2019-03-31T21:08:40.431Z,60470.04
2019-03-31T21:11:08.887Z,60483.25
2019-03-31T21:13:37.413Z,60501.54
2019-03-31T21:16:05.872Z,60475.12
2019-03-31T21:18:34.655Z,60475.12
2019-03-31T21:21:03.044Z,60484.26
2019-03-31T21:23:31.425Z,60496.46
2019-03-31T21:26:00.158Z,60486.29
2019-03-31T21:28:28.549Z,60529.99
2019-03-31T21:30:56.935Z,60490.36
2019-03-31T21:33:25.642Z,60490.36
2019-03-31T21:35:54.030Z,60499.50
2019-03-31T21:38:22.441Z,60469.02
2019-03-31T21:40:50.826Z,60470.04
2019-03-31T21:43:19.208Z,60464.96
2019-03-31T21:45:47.626Z,60507.64
2019-03-31T21:48:16.319Z,60506.62
2019-03-31T21:50:45.023Z,60509.67
2019-03-31T21:53:13.417Z,60493.41
2019-03-31T21:55:41.827Z,60493.41
2019-03-31T21:58:10.208Z,60458.86
2019-03-31T22:00:55.551Z,60491.38
2019-03-31T22:03:23.920Z,60474.10
2019-03-31T22:05:52.401Z,60474.10
2019-03-31T22:08:20.794Z,60479.18
2019-03-31T22:10:49.468Z,60479.18
2019-03-31T22:13:17.967Z,60505.60
2019-03-31T22:15:46.354Z,60498.49
2019-03-31T22:18:15.104Z,60501.54
2019-03-31T22:20:47.113Z,60508.65
2019-03-31T22:23:13.876Z,60527.96
2019-03-31T22:25:42.590Z,60502.55
2019-03-31T22:28:11.288Z,60489.34
2019-03-31T22:30:39.996Z,60489.34
2019-03-31T22:33:08.462Z,60489.34
2019-03-31T22:35:36.837Z,60509.67
2019-03-31T22:38:05.620Z,60485.28
2019-03-31T22:40:34.293Z,60506.62
2019-03-31T22:43:02.678Z,60494.43
2019-03-31T22:45:31.362Z,60497.47
2019-03-31T22:47:59.838Z,60479.18
2019-03-31T22:50:28.224Z,60507.64
2019-03-31T22:52:56.829Z,60490.36
2019-03-31T22:55:25.207Z,60497.47
2019-03-31T22:57:53.871Z,60477.15
2019-03-31T23:00:24.300Z,60514.75
2019-03-31T23:02:52.806Z,60502.55
2019-03-31T23:05:21.190Z,60491.38
2019-03-31T23:07:49.772Z,60491.38
2019-03-31T23:10:18.454Z,60529.99
2019-03-31T23:12:46.840Z,60497.47
2019-03-31T23:15:15.307Z,60516.78
2019-03-31T23:17:44.703Z,60482.23
2019-03-31T23:20:13.797Z,60492.39
2019-03-31T23:22:42.165Z,60494.43
2019-03-31T23:25:11.089Z,60455.81
2019-03-31T23:27:39.446Z,60510.68
2019-03-31T23:30:10.682Z,60479.18
2019-03-31T23:32:39.469Z,60504.59
2019-03-31T23:35:08.960Z,60533.04
2019-03-31T23:37:37.337Z,60504.59
2019-03-31T23:40:06.157Z,60499.50
2019-03-31T23:42:34.556Z,60515.77
2019-03-31T23:45:03.006Z,60499.50
2019-03-31T23:47:31.520Z,60485.28
2019-03-31T23:49:59.918Z,60514.75
2019-03-31T23:52:28.479Z,60488.33
2019-03-31T23:54:56.851Z,60511.70
2019-03-31T23:57:41.329Z,60521.86
